createdAt,value
2022-10-14T00:01:35.407Z,14.10
2022-10-14T00:04:03.182Z,14.00
2022-10-14T00:06:32.041Z,14.00
2022-10-14T00:09:00.742Z,14.00
2022-10-14T00:11:31.001Z,14.00
2022-10-14T00:13:59.467Z,14.00
2022-10-14T00:16:28.346Z,14.00
2022-10-14T00:18:56.097Z,13.90
2022-10-14T00:21:23.786Z,13.80
2022-10-14T00:23:51.456Z,13.80
2022-10-14T00:26:20.986Z,13.80
2022-10-14T00:28:50.127Z,13.80
2022-10-14T00:31:18.351Z,13.70
2022-10-14T00:33:46.395Z,13.70
2022-10-14T00:36:15.099Z,13.70
2022-10-14T00:38:43.083Z,13.70
2022-10-14T00:41:11.914Z,13.80
2022-10-14T00:43:55.080Z,13.80
2022-10-14T00:46:22.801Z,13.80
2022-10-14T00:48:50.809Z,13.90
2022-10-14T00:51:18.666Z,13.90
2022-10-14T00:53:47.455Z,13.90
2022-10-14T00:56:16.933Z,13.90
2022-10-14T00:58:45.123Z,13.90
2022-10-14T01:01:14.341Z,13.90
2022-10-14T01:03:42.203Z,13.90
2022-10-14T01:06:14.112Z,13.90
2022-10-14T01:08:45.793Z,13.90
2022-10-14T01:11:16.664Z,13.90
2022-10-14T01:13:49.092Z,13.90
2022-10-14T01:16:24.686Z,13.90
2022-10-14T01:18:58.369Z,13.90
2022-10-14T01:21:28.241Z,13.90
2022-10-14T01:24:15.722Z,13.80
2022-10-14T01:26:57.402Z,13.90
2022-10-14T01:29:32.267Z,13.90
2022-10-14T01:32:03.676Z,13.90
2022-10-14T01:34:35.091Z,13.90
2022-10-14T01:37:05.416Z,13.90
2022-10-14T01:39:37.034Z,13.90
2022-10-14T01:42:06.560Z,13.90
2022-10-14T01:44:35.500Z,13.90
2022-10-14T01:47:05.594Z,13.80
2022-10-14T01:49:35.387Z,13.80
2022-10-14T01:52:05.592Z,13.80
2022-10-14T01:54:35.818Z,13.80
2022-10-14T01:57:04.466Z,13.80
2022-10-14T01:59:32.778Z,13.80
2022-10-14T02:02:00.623Z,13.80
2022-10-14T02:04:29.717Z,13.80
2022-10-14T02:07:01.082Z,13.80
2022-10-14T02:09:32.362Z,13.80
2022-10-14T02:12:04.384Z,13.90
2022-10-14T02:14:35.142Z,13.90
2022-10-14T02:17:04.746Z,13.80
2022-10-14T02:19:38.290Z,13.80
2022-10-14T02:22:08.671Z,13.80
2022-10-14T02:24:39.151Z,13.80
2022-10-14T02:27:08.800Z,13.80
2022-10-14T02:29:37.002Z,13.80
2022-10-14T02:32:05.508Z,13.80
2022-10-14T02:34:34.956Z,13.90
2022-10-14T02:37:02.708Z,13.90
2022-10-14T02:39:31.679Z,13.80
2022-10-14T02:41:59.453Z,13.90
2022-10-14T02:44:27.142Z,13.80
2022-10-14T02:46:55.599Z,13.90
2022-10-14T02:49:23.319Z,13.90
2022-10-14T02:51:52.406Z,13.90
2022-10-14T02:54:20.072Z,13.90
2022-10-14T02:56:47.841Z,13.90
2022-10-14T02:59:15.490Z,13.90
2022-10-14T03:01:43.165Z,13.90
2022-10-14T03:04:10.969Z,13.90
2022-10-14T03:06:38.704Z,13.90
2022-10-14T03:09:07.718Z,13.80
2022-10-14T03:11:35.393Z,13.90
2022-10-14T03:14:03.083Z,13.90
2022-10-14T03:16:30.778Z,14.00
2022-10-14T03:18:58.444Z,13.90
2022-10-14T03:21:26.127Z,13.90
2022-10-14T03:23:53.786Z,13.90
2022-10-14T03:26:23.810Z,13.90
2022-10-14T03:28:51.530Z,13.90
2022-10-14T03:31:19.315Z,13.90
2022-10-14T03:33:47.008Z,13.90
2022-10-14T03:36:14.671Z,13.90
2022-10-14T03:38:42.327Z,13.90
2022-10-14T03:41:10.000Z,13.80
2022-10-14T03:43:39.012Z,13.90
2022-10-14T03:46:06.711Z,13.90
2022-10-14T03:48:34.455Z,13.80
2022-10-14T03:51:02.395Z,13.80
2022-10-14T03:53:30.107Z,13.80
2022-10-14T03:55:57.886Z,13.90
2022-10-14T03:58:25.572Z,13.90
2022-10-14T04:00:54.579Z,13.80
2022-10-14T04:03:22.352Z,13.90
2022-10-14T04:05:50.069Z,13.90
2022-10-14T04:08:17.864Z,13.80
2022-10-14T04:10:45.684Z,13.90
2022-10-14T04:13:13.377Z,13.90
2022-10-14T04:15:41.045Z,13.90
2022-10-14T04:18:10.105Z,13.80
2022-10-14T04:20:37.955Z,13.80
2022-10-14T04:23:05.680Z,13.80
2022-10-14T04:25:34.052Z,13.70
2022-10-14T04:28:01.715Z,13.70
2022-10-14T04:30:29.374Z,13.70
2022-10-14T04:32:57.053Z,13.70
2022-10-14T04:35:26.047Z,13.60
2022-10-14T04:37:53.723Z,13.70
2022-10-14T04:40:25.562Z,13.70
2022-10-14T04:42:55.655Z,13.70
2022-10-14T04:45:23.366Z,13.70
2022-10-14T04:47:51.061Z,13.70
2022-10-14T04:50:19.134Z,13.70
2022-10-14T04:52:48.167Z,13.60
2022-10-14T04:55:15.938Z,13.50
2022-10-14T04:57:44.163Z,13.50
2022-10-14T05:00:13.026Z,13.40
2022-10-14T05:02:40.710Z,13.40
2022-10-14T05:05:08.813Z,13.50
2022-10-14T05:07:36.650Z,13.50
2022-10-14T05:10:06.218Z,13.50
2022-10-14T05:12:34.226Z,13.50
2022-10-14T05:15:01.884Z,13.50
2022-10-14T05:17:29.854Z,13.40
2022-10-14T05:19:57.520Z,13.50
2022-10-14T05:22:25.247Z,13.40
2022-10-14T05:24:52.951Z,13.40
2022-10-14T05:27:22.033Z,13.40
2022-10-14T05:29:49.772Z,13.40
2022-10-14T05:32:17.559Z,13.40
2022-10-14T05:34:45.245Z,13.30
2022-10-14T05:37:12.966Z,13.30
2022-10-14T05:39:40.670Z,13.30
2022-10-14T05:42:08.347Z,13.30
2022-10-14T05:44:37.419Z,13.30
2022-10-14T05:47:05.180Z,13.30
2022-10-14T05:49:32.959Z,13.20
2022-10-14T05:52:00.702Z,13.20
2022-10-14T05:54:28.429Z,13.30
2022-10-14T05:56:56.144Z,13.30
2022-10-14T05:59:23.797Z,13.30
2022-10-14T06:01:52.809Z,13.30
2022-10-14T06:04:21.211Z,13.30
2022-10-14T06:06:48.975Z,13.30
2022-10-14T06:09:16.795Z,13.30
2022-10-14T06:11:44.467Z,13.30
2022-10-14T06:14:12.135Z,13.20
2022-10-14T06:16:39.902Z,13.30
2022-10-14T06:19:08.922Z,13.20
2022-10-14T06:21:36.590Z,13.30
2022-10-14T06:24:04.958Z,13.30
2022-10-14T06:26:32.621Z,13.30
2022-10-14T06:29:00.426Z,13.30
2022-10-14T06:31:32.147Z,13.30
2022-10-14T06:34:00.463Z,13.30
2022-10-14T06:36:29.494Z,13.30
2022-10-14T06:38:57.208Z,13.30
2022-10-14T06:41:25.353Z,13.30
2022-10-14T06:43:53.070Z,13.30
2022-10-14T06:46:20.775Z,13.40
2022-10-14T06:48:50.404Z,13.40
2022-10-14T06:51:18.418Z,13.40
2022-10-14T06:53:47.419Z,13.40
2022-10-14T06:56:15.184Z,13.40
2022-10-14T06:58:43.061Z,13.40
2022-10-14T07:01:10.731Z,13.40
2022-10-14T07:03:39.373Z,13.40
2022-10-14T07:06:07.898Z,13.40
2022-10-14T07:08:35.695Z,13.40
2022-10-14T07:11:04.930Z,13.50
2022-10-14T07:13:34.102Z,13.40
2022-10-14T07:16:02.063Z,13.40
2022-10-14T07:18:29.727Z,13.40
2022-10-14T07:20:57.533Z,13.40
2022-10-14T07:23:25.250Z,13.40
2022-10-14T07:25:52.910Z,13.40
2022-10-14T07:28:22.092Z,13.30
2022-10-14T07:30:57.191Z,13.40
2022-10-14T07:33:24.938Z,13.30
2022-10-14T07:35:52.652Z,13.40
2022-10-14T07:38:20.336Z,13.40
2022-10-14T07:40:56.083Z,13.50
2022-10-14T07:43:25.102Z,13.50
2022-10-14T07:46:00.003Z,13.40
2022-10-14T07:48:32.771Z,13.50
2022-10-14T07:51:12.585Z,13.40
2022-10-14T07:53:40.353Z,13.50
2022-10-14T07:56:08.128Z,13.40
2022-10-14T07:58:39.946Z,13.50
2022-10-14T08:01:11.350Z,13.50
2022-10-14T08:03:39.092Z,13.50
2022-10-14T08:06:06.981Z,13.50
2022-10-14T08:08:34.776Z,13.50
2022-10-14T08:11:03.121Z,13.60
2022-10-14T08:13:31.378Z,13.60
2022-10-14T08:16:00.508Z,13.60
2022-10-14T08:18:28.609Z,13.70
2022-10-14T08:20:56.308Z,13.70
2022-10-14T08:23:23.972Z,13.70
2022-10-14T08:25:51.823Z,13.80
2022-10-14T08:28:19.581Z,13.80
2022-10-14T08:30:48.113Z,13.90
2022-10-14T08:33:17.478Z,13.90
2022-10-14T08:35:45.171Z,13.90
2022-10-14T08:38:12.848Z,13.90
2022-10-14T08:40:54.853Z,13.90
2022-10-14T08:43:25.178Z,13.90
2022-10-14T08:45:54.799Z,13.90
2022-10-14T08:48:25.923Z,13.90
2022-10-14T08:50:55.689Z,13.90
2022-10-14T08:53:28.197Z,13.90
2022-10-14T08:56:00.135Z,13.90
2022-10-14T08:58:29.484Z,13.90
2022-10-14T09:00:57.268Z,13.80
2022-10-14T09:03:33.003Z,13.90
2022-10-14T09:06:02.667Z,14.00
2022-10-14T09:08:34.515Z,13.90
2022-10-14T09:11:02.257Z,14.00
2022-10-14T09:13:31.614Z,14.00
2022-10-14T09:16:02.785Z,14.00
2022-10-14T09:18:35.003Z,14.00
2022-10-14T09:21:03.206Z,14.10
2022-10-14T09:23:30.931Z,14.10
2022-10-14T09:25:59.587Z,14.20
2022-10-14T09:28:33.071Z,14.20
2022-10-14T09:31:00.823Z,14.20
2022-10-14T09:33:29.203Z,14.30
2022-10-14T09:38:27.243Z,14.30
2022-10-14T09:40:57.076Z,14.40
2022-10-14T09:43:25.886Z,14.40
2022-10-14T09:45:56.520Z,14.40
2022-10-14T09:48:32.284Z,14.40
2022-10-14T09:51:02.676Z,14.50
2022-10-14T09:53:31.770Z,14.50
2022-10-14T09:56:00.606Z,14.50
2022-10-14T09:58:30.588Z,14.60
2022-10-14T10:00:58.705Z,14.60
2022-10-14T10:03:27.925Z,14.70
2022-10-14T10:06:05.067Z,14.90
2022-10-14T10:08:33.687Z,14.90
2022-10-14T10:11:06.505Z,15.00
2022-10-14T10:13:38.300Z,15.00
2022-10-14T10:16:06.534Z,15.00
2022-10-14T10:18:34.414Z,15.00
2022-10-14T10:21:06.794Z,15.00
2022-10-14T10:23:35.828Z,15.10
2022-10-14T10:26:15.696Z,15.10
2022-10-14T10:28:46.172Z,15.20
2022-10-14T10:31:21.187Z,15.20
2022-10-14T10:33:54.038Z,15.20
2022-10-14T10:36:29.113Z,15.20
2022-10-14T10:38:59.889Z,15.10
2022-10-14T10:41:46.719Z,15.20
2022-10-14T10:44:28.524Z,15.00
2022-10-14T10:47:02.427Z,15.10
2022-10-14T10:49:38.761Z,15.20
2022-10-14T10:52:09.782Z,15.10
2022-10-14T10:54:41.323Z,15.20
2022-10-14T10:57:13.815Z,15.20
2022-10-14T10:59:48.251Z,15.20
2022-10-14T11:02:34.731Z,15.20
2022-10-14T11:05:05.690Z,15.10
2022-10-14T11:07:56.577Z,15.00
2022-10-14T11:10:43.177Z,15.00
2022-10-14T11:13:16.636Z,15.00
2022-10-14T11:15:49.498Z,14.90
2022-10-14T11:18:24.242Z,15.00
2022-10-14T11:21:00.713Z,14.90
2022-10-14T11:23:35.905Z,14.90
2022-10-14T11:26:06.902Z,15.00
2022-10-14T11:28:38.889Z,15.00
2022-10-14T11:31:09.506Z,14.90
2022-10-14T11:33:52.172Z,14.90
2022-10-14T11:36:27.619Z,14.90
2022-10-14T11:39:05.164Z,14.90
2022-10-14T11:41:37.891Z,14.80
2022-10-14T11:44:08.776Z,14.80
2022-10-14T11:46:38.262Z,14.80
2022-10-14T11:49:12.022Z,14.70
2022-10-14T11:51:42.255Z,14.70
2022-10-14T11:54:14.847Z,14.70
2022-10-14T11:56:45.631Z,14.70
2022-10-14T11:59:27.210Z,14.70
2022-10-14T12:01:56.331Z,14.60
2022-10-14T12:04:26.893Z,14.70
2022-10-14T12:07:01.025Z,14.60
2022-10-14T12:09:33.715Z,14.60
2022-10-14T12:12:04.119Z,14.60
2022-10-14T12:14:34.442Z,14.60
2022-10-14T12:17:04.688Z,14.60
2022-10-14T12:19:32.782Z,14.50
2022-10-14T12:22:06.120Z,14.50
2022-10-14T12:24:37.792Z,14.50
2022-10-14T12:27:06.438Z,14.50
2022-10-14T12:29:36.817Z,14.50
2022-10-14T12:32:09.444Z,14.50
2022-10-14T12:34:38.211Z,14.40
2022-10-14T12:37:28.753Z,14.40
2022-10-14T12:40:13.990Z,14.30
2022-10-14T12:42:54.359Z,14.40
2022-10-14T12:45:22.988Z,14.40
2022-10-14T12:48:02.044Z,14.30
2022-10-14T12:50:31.275Z,14.30
2022-10-14T12:53:00.221Z,14.30
2022-10-14T12:55:30.242Z,14.30
2022-10-14T12:58:00.214Z,14.30
2022-10-14T13:00:29.996Z,14.30
2022-10-14T13:03:00.995Z,14.30
2022-10-14T13:05:32.610Z,14.30
2022-10-14T13:08:22.692Z,14.30
2022-10-14T13:10:52.480Z,14.30
2022-10-14T13:13:40.011Z,14.30
2022-10-14T13:16:09.438Z,14.30
2022-10-14T13:18:48.693Z,14.30
2022-10-14T13:21:26.718Z,14.30
2022-10-14T13:23:55.205Z,14.30
2022-10-14T13:26:24.822Z,14.30
2022-10-14T13:28:59.672Z,14.30
2022-10-14T13:31:35.054Z,14.30
2022-10-14T13:34:12.642Z,14.40
2022-10-14T13:36:43.862Z,14.40
2022-10-14T13:39:11.559Z,14.40
2022-10-14T13:41:40.734Z,14.40
2022-10-14T13:44:11.705Z,14.50
2022-10-14T13:46:43.374Z,14.50
2022-10-14T13:51:49.127Z,14.40
2022-10-14T13:54:18.473Z,14.50
2022-10-14T13:57:13.809Z,14.50
2022-10-14T14:00:11.608Z,14.50
2022-10-14T14:02:35.701Z,14.50
2022-10-14T14:05:03.423Z,14.50
2022-10-14T14:10:23.403Z,14.50
2022-10-14T14:12:51.614Z,14.50
2022-10-14T14:15:24.380Z,14.50
2022-10-14T14:17:53.808Z,14.50
2022-10-14T14:20:22.506Z,14.50
2022-10-14T14:22:50.628Z,14.50
2022-10-14T14:25:46.794Z,14.50
2022-10-14T14:28:13.592Z,14.50
2022-10-14T14:30:41.267Z,14.60
2022-10-14T14:33:13.144Z,14.50
2022-10-14T14:35:41.662Z,14.50
2022-10-14T14:38:24.367Z,14.50
2022-10-14T14:41:00.837Z,14.60
2022-10-14T14:43:31.723Z,14.60
2022-10-14T14:46:03.766Z,14.60
2022-10-14T14:48:33.490Z,14.70
2022-10-14T14:51:02.181Z,14.70
2022-10-14T14:53:30.475Z,14.70
2022-10-14T14:56:01.192Z,14.70
2022-10-14T14:58:30.641Z,14.70
2022-10-14T15:00:58.578Z,14.70
2022-10-14T15:03:27.558Z,14.80
2022-10-14T15:05:58.959Z,14.80
2022-10-14T15:08:28.290Z,14.80
2022-10-14T15:10:57.024Z,14.80
2022-10-14T15:13:29.524Z,14.90
2022-10-14T15:15:57.282Z,14.80
2022-10-14T15:18:27.838Z,14.90
2022-10-14T15:21:07.181Z,14.90
2022-10-14T15:23:38.558Z,14.80
2022-10-14T15:26:06.782Z,14.90
2022-10-14T15:28:34.519Z,14.90
2022-10-14T15:31:04.908Z,15.00
2022-10-14T15:33:33.638Z,14.90
2022-10-14T15:36:02.615Z,15.00
2022-10-14T15:41:04.730Z,15.10
2022-10-14T15:43:33.737Z,15.10
2022-10-14T15:46:19.123Z,15.10
2022-10-14T15:48:47.574Z,15.10
2022-10-14T15:51:16.361Z,15.10
2022-10-14T15:53:45.423Z,15.10
2022-10-14T15:56:13.218Z,15.10
2022-10-14T15:58:40.943Z,15.10
2022-10-14T16:01:08.850Z,15.10
2022-10-14T16:03:40.872Z,15.00
2022-10-14T16:06:09.016Z,15.10
2022-10-14T16:08:37.017Z,15.10
2022-10-14T16:11:06.576Z,15.20
2022-10-14T16:13:34.254Z,15.20
2022-10-14T16:16:04.353Z,15.20
2022-10-14T16:18:32.016Z,15.20
2022-10-14T16:20:59.756Z,15.10
2022-10-14T16:23:29.747Z,15.10
2022-10-14T16:26:00.378Z,15.10
2022-10-14T16:28:29.548Z,15.10
2022-10-14T16:30:57.263Z,15.20
2022-10-14T16:33:24.972Z,15.20
2022-10-14T16:35:54.010Z,15.20
2022-10-14T16:38:22.063Z,15.20
2022-10-14T16:40:54.747Z,15.20
2022-10-14T16:43:22.414Z,15.10
2022-10-14T16:45:51.436Z,15.20
2022-10-14T16:48:19.354Z,15.10
2022-10-14T16:50:49.807Z,15.10
2022-10-14T16:53:35.355Z,15.10
2022-10-14T16:56:03.079Z,15.10
2022-10-14T16:58:30.750Z,15.00
2022-10-14T17:00:59.869Z,15.10
2022-10-14T17:03:27.601Z,15.00
2022-10-14T17:05:57.723Z,15.10
2022-10-14T17:08:25.419Z,15.00
2022-10-14T17:10:57.413Z,15.00
2022-10-14T17:13:25.202Z,15.00
2022-10-14T17:16:00.699Z,15.00
2022-10-14T17:18:33.674Z,15.00
2022-10-14T17:21:02.662Z,14.90
2022-10-14T17:23:31.999Z,15.00
2022-10-14T17:25:59.653Z,15.00
2022-10-14T17:28:27.362Z,15.00
2022-10-14T17:30:55.122Z,14.90
2022-10-14T17:33:25.981Z,15.00
2022-10-14T17:35:57.911Z,15.00
2022-10-14T17:38:25.662Z,15.00
2022-10-14T17:40:53.476Z,15.00
2022-10-14T17:43:21.389Z,15.00
2022-10-14T17:45:49.056Z,15.00
2022-10-14T17:48:17.118Z,15.00
2022-10-14T17:50:49.101Z,15.00
2022-10-14T17:53:16.792Z,15.00
2022-10-14T17:55:44.479Z,15.00
2022-10-14T17:58:12.168Z,15.00
2022-10-14T18:00:39.874Z,15.00
2022-10-14T18:03:08.436Z,15.00
2022-10-14T18:05:37.954Z,15.00
2022-10-14T18:08:07.131Z,15.00
2022-10-14T18:10:36.135Z,15.00
2022-10-14T18:13:04.279Z,15.00
2022-10-14T18:15:33.120Z,15.00
2022-10-14T18:18:00.808Z,15.00
2022-10-14T18:20:28.544Z,15.00
2022-10-14T18:22:56.416Z,15.00
2022-10-14T18:25:25.455Z,15.00
2022-10-14T18:27:53.169Z,15.00
2022-10-14T18:30:20.877Z,15.00
2022-10-14T18:32:48.534Z,14.90
2022-10-14T18:35:16.360Z,14.90
2022-10-14T18:37:44.030Z,14.90
2022-10-14T18:40:14.319Z,14.90
2022-10-14T18:42:43.419Z,14.90
2022-10-14T18:45:11.173Z,14.90
2022-10-14T18:47:38.854Z,14.90
2022-10-14T18:50:06.748Z,14.90
2022-10-14T18:52:34.407Z,15.00
2022-10-14T18:55:02.074Z,14.90
2022-10-14T18:57:30.027Z,15.00
2022-10-14T18:59:59.158Z,14.90
2022-10-14T19:02:26.856Z,15.00
2022-10-14T19:04:56.113Z,15.00
2022-10-14T19:07:23.795Z,15.00
2022-10-14T19:09:52.972Z,15.00
2022-10-14T19:12:40.981Z,15.00
2022-10-14T19:15:10.960Z,14.90
2022-10-14T19:17:38.723Z,15.00
2022-10-14T19:20:08.333Z,15.00
2022-10-14T19:22:40.649Z,14.90
2022-10-14T19:25:08.854Z,14.90
2022-10-14T19:27:36.528Z,14.90
2022-10-14T19:30:04.332Z,14.90
2022-10-14T19:32:33.384Z,14.90
2022-10-14T19:35:01.464Z,14.90
2022-10-14T19:37:29.288Z,14.90
2022-10-14T19:39:57.208Z,14.90
2022-10-14T19:42:24.901Z,14.90
2022-10-14T19:44:52.575Z,14.90
2022-10-14T19:47:20.588Z,14.90
2022-10-14T19:49:49.794Z,14.90
2022-10-14T19:52:17.454Z,14.90
2022-10-14T19:54:45.155Z,14.80
2022-10-14T19:57:12.835Z,14.80
2022-10-14T19:59:40.506Z,14.80
2022-10-14T20:02:09.366Z,14.80
2022-10-14T20:04:37.023Z,14.90
2022-10-14T20:07:06.047Z,14.90
2022-10-14T20:09:33.848Z,14.90
2022-10-14T20:12:01.597Z,14.90
2022-10-14T20:14:30.329Z,14.90
2022-10-14T20:16:58.022Z,14.90
2022-10-14T20:19:25.756Z,14.80
2022-10-14T20:21:53.475Z,14.80
2022-10-14T20:24:22.550Z,14.80
2022-10-14T20:26:50.240Z,14.80
2022-10-14T20:29:17.956Z,14.80
2022-10-14T20:31:45.636Z,14.80
2022-10-14T20:34:13.344Z,14.80
2022-10-14T20:36:40.999Z,14.80
2022-10-14T20:39:09.070Z,14.80
2022-10-14T20:41:38.057Z,14.80
2022-10-14T20:44:05.834Z,14.90
2022-10-14T20:46:33.655Z,14.90
2022-10-14T20:49:01.655Z,14.90
2022-10-14T20:51:29.327Z,14.80
2022-10-14T20:54:01.774Z,14.80
2022-10-14T20:56:32.566Z,14.80
2022-10-14T20:59:02.522Z,14.80
2022-10-14T21:01:30.604Z,14.70
2022-10-14T21:04:00.767Z,14.70
2022-10-14T21:06:28.932Z,14.70
2022-10-14T21:08:57.926Z,14.70
2022-10-14T21:11:25.969Z,14.70
2022-10-14T21:13:54.912Z,14.60
2022-10-14T21:16:24.825Z,14.70
2022-10-14T21:18:57.418Z,14.70
2022-10-14T21:21:26.238Z,14.70
2022-10-14T21:23:53.943Z,14.70
2022-10-14T21:26:21.787Z,14.70
2022-10-14T21:28:49.530Z,14.70
2022-10-14T21:31:19.220Z,14.70
2022-10-14T21:33:49.095Z,14.70
2022-10-14T21:36:17.130Z,14.70
2022-10-14T21:38:44.973Z,14.70
2022-10-14T21:41:13.027Z,14.70
2022-10-14T21:43:41.149Z,14.70
2022-10-14T21:46:10.128Z,14.60
2022-10-14T21:48:38.814Z,14.70
2022-10-14T21:51:09.145Z,14.70
2022-10-14T21:53:36.847Z,14.70
2022-10-14T21:56:04.854Z,14.70
2022-10-14T21:58:32.686Z,14.70
2022-10-14T22:01:04.623Z,14.70
2022-10-14T22:03:54.126Z,14.70
2022-10-14T22:06:23.238Z,14.70
2022-10-14T22:08:51.683Z,14.80
2022-10-14T22:11:20.591Z,14.80
2022-10-14T22:13:48.429Z,14.80
2022-10-14T22:16:16.873Z,14.90
2022-10-14T22:18:46.595Z,14.90
2022-10-14T22:21:15.512Z,14.90
2022-10-14T22:23:44.625Z,14.90
2022-10-14T22:26:13.824Z,14.90
2022-10-14T22:28:41.611Z,14.90
2022-10-14T22:31:11.185Z,14.90
2022-10-14T22:33:39.689Z,14.90
2022-10-14T22:36:11.395Z,14.90
2022-10-14T22:38:39.817Z,14.90
2022-10-14T22:41:08.990Z,14.90
2022-10-14T22:43:37.185Z,14.90
2022-10-14T22:46:05.765Z,14.90
2022-10-14T22:48:33.871Z,14.90
2022-10-14T22:51:02.993Z,14.90
2022-10-14T22:53:30.692Z,14.90
2022-10-14T22:55:58.444Z,14.90
2022-10-14T22:58:27.492Z,14.80
2022-10-14T23:00:55.216Z,14.80
2022-10-14T23:03:22.904Z,14.80
2022-10-14T23:05:50.628Z,14.80
2022-10-14T23:08:18.347Z,14.80
2022-10-14T23:10:46.015Z,14.80
2022-10-14T23:13:13.713Z,14.80
2022-10-14T23:15:42.745Z,14.80
2022-10-14T23:18:10.426Z,14.80
2022-10-14T23:20:38.298Z,14.90
2022-10-14T23:23:05.970Z,14.90
2022-10-14T23:25:33.763Z,15.00
2022-10-14T23:28:01.452Z,15.00
2022-10-14T23:30:29.173Z,14.90
2022-10-14T23:32:58.194Z,14.90
2022-10-14T23:35:25.905Z,15.00
2022-10-14T23:37:53.629Z,15.00
2022-10-14T23:40:21.306Z,15.00
2022-10-14T23:42:48.997Z,15.00
2022-10-14T23:45:16.742Z,15.00
2022-10-14T23:47:44.430Z,14.90
2022-10-14T23:50:13.714Z,15.00
2022-10-14T23:52:41.410Z,14.90
2022-10-14T23:55:09.450Z,14.90
2022-10-14T23:57:37.185Z,14.80
